createdAt,value
2022-10-24T05:05:26.698Z,74.26
2022-10-24T05:10:47.617Z,74.06
2022-10-24T05:16:08.686Z,73.98
2022-10-24T05:21:29.429Z,73.62
2022-10-24T05:26:50.191Z,74.77
2022-10-24T05:32:11.797Z,74.03
2022-10-24T05:37:32.695Z,74.13
2022-10-24T05:42:53.781Z,74.31
2022-10-24T05:48:14.620Z,74.30
2022-10-24T05:53:35.403Z,74.80
2022-10-24T05:58:57.524Z,74.43
2022-10-24T06:04:18.189Z,74.46
2022-10-24T06:09:39.603Z,74.68
2022-10-24T06:15:00.539Z,74.06
2022-10-24T06:20:21.228Z,74.36
2022-10-24T06:25:43.069Z,74.16
2022-10-24T06:31:04.820Z,74.34
2022-10-24T06:36:26.952Z,73.91
2022-10-24T06:41:50.437Z,73.59
2022-10-24T06:47:11.804Z,74.06
2022-10-24T06:52:32.743Z,73.87
2022-10-24T06:57:54.033Z,73.66
2022-10-24T07:03:15.911Z,73.40
2022-10-24T07:08:37.108Z,73.44
2022-10-24T07:14:00.849Z,73.06
2022-10-24T07:19:23.032Z,73.23
2022-10-24T07:24:44.046Z,72.83
2022-10-24T07:30:06.234Z,72.88
2022-10-24T07:35:26.993Z,72.80
2022-10-24T07:40:48.161Z,72.28
2022-10-24T07:46:11.712Z,72.18
2022-10-24T07:51:32.993Z,71.80
2022-10-24T07:56:54.173Z,71.70
2022-10-24T08:02:16.146Z,71.13
2022-10-24T08:07:37.508Z,70.98
2022-10-24T08:12:58.802Z,70.32
2022-10-24T08:18:19.569Z,70.01
2022-10-24T08:23:43.836Z,69.51
2022-10-24T08:29:10.790Z,69.12
2022-10-24T08:34:31.969Z,68.86
2022-10-24T08:39:55.750Z,67.51
2022-10-24T08:45:26.763Z,66.16
2022-10-24T08:50:53.218Z,66.43
2022-10-24T08:56:14.328Z,65.96
2022-10-24T09:01:50.504Z,65.61
2022-10-24T09:07:18.600Z,65.75
2022-10-24T09:12:40.168Z,65.55
2022-10-24T09:18:01.343Z,65.25
2022-10-24T09:23:24.518Z,65.59
2022-10-24T09:28:45.821Z,65.85
2022-10-24T09:34:07.401Z,65.74
2022-10-24T09:39:32.162Z,65.57
2022-10-24T09:44:57.817Z,65.77
2022-10-24T09:50:21.490Z,65.42
2022-10-24T09:55:47.062Z,65.28
2022-10-24T10:01:21.131Z,64.97
2022-10-24T10:06:50.282Z,64.56
2022-10-24T10:12:26.924Z,64.87
2022-10-24T10:17:53.801Z,65.63
2022-10-24T10:23:36.347Z,65.23
2022-10-24T10:28:59.170Z,65.15
2022-10-24T10:34:28.188Z,64.39
2022-10-24T10:39:55.306Z,64.19
2022-10-24T10:45:41.181Z,63.88
2022-10-24T10:51:11.126Z,64.06
2022-10-24T10:56:48.499Z,63.64
2022-10-24T11:02:50.589Z,64.02
2022-10-24T11:08:39.638Z,64.14
2022-10-24T11:14:33.141Z,64.48
2022-10-24T11:20:23.664Z,64.52
2022-10-24T11:25:59.251Z,64.62
2022-10-24T11:31:23.795Z,64.80
2022-10-24T11:37:18.841Z,64.83
2022-10-24T11:42:43.010Z,64.81
2022-10-24T11:48:16.820Z,65.04
2022-10-24T11:53:39.408Z,64.80
2022-10-24T11:59:06.295Z,64.35
2022-10-24T12:04:57.971Z,64.54
2022-10-24T12:10:47.853Z,64.67
2022-10-24T12:16:15.633Z,64.47
2022-10-24T12:21:41.672Z,64.33
2022-10-24T12:27:06.966Z,64.09
2022-10-24T12:33:06.883Z,64.37
2022-10-24T12:38:27.854Z,64.41
2022-10-24T12:43:49.048Z,64.33
2022-10-24T12:49:10.236Z,64.32
2022-10-24T12:54:49.286Z,64.19
2022-10-24T13:00:31.527Z,64.24
2022-10-24T13:06:04.322Z,64.49
2022-10-24T13:11:44.861Z,64.23
2022-10-24T13:17:27.286Z,64.50
2022-10-24T13:22:50.945Z,64.44
2022-10-24T13:28:24.028Z,64.47
2022-10-24T13:33:46.476Z,64.92
2022-10-24T13:39:11.700Z,63.83
2022-10-24T13:44:47.898Z,63.08
2022-10-24T13:50:14.708Z,63.09
2022-10-24T13:55:39.009Z,62.90
2022-10-24T14:01:25.689Z,62.32
2022-10-24T14:06:46.447Z,62.65
2022-10-24T14:12:08.105Z,63.05
2022-10-24T14:17:34.519Z,63.78
2022-10-24T14:22:56.294Z,63.99
2022-10-24T14:28:21.128Z,64.22
2022-10-24T14:33:45.371Z,64.39
2022-10-24T14:39:06.661Z,64.77
2022-10-24T14:44:28.529Z,65.02
2022-10-24T14:49:50.309Z,64.95
2022-10-24T14:55:14.363Z,65.08
2022-10-24T15:00:39.856Z,65.14
2022-10-24T15:06:12.518Z,65.44
2022-10-24T15:11:47.417Z,65.62
2022-10-24T15:17:17.338Z,65.94
2022-10-24T15:22:38.409Z,66.22
2022-10-24T15:28:01.047Z,66.23
2022-10-24T15:33:22.024Z,66.58
2022-10-24T15:38:43.010Z,66.85
2022-10-24T15:44:13.640Z,67.20
2022-10-24T15:49:35.057Z,67.28
2022-10-24T15:54:56.169Z,67.45
2022-10-24T16:00:19.925Z,67.61
2022-10-24T16:05:44.106Z,67.93
2022-10-24T16:11:07.712Z,68.16
2022-10-24T16:16:30.705Z,68.41
2022-10-24T16:21:52.301Z,68.12
2022-10-24T16:27:13.541Z,68.55
2022-10-24T16:32:34.510Z,68.43
2022-10-24T16:37:56.937Z,68.89
2022-10-24T16:43:19.775Z,68.80
2022-10-24T16:48:40.757Z,69.03
2022-10-24T16:54:02.921Z,68.81
2022-10-24T16:59:24.073Z,69.00
2022-10-24T17:04:45.150Z,69.06
2022-10-24T17:10:06.390Z,69.14
2022-10-24T17:15:27.085Z,69.26
2022-10-24T17:20:48.250Z,69.28
2022-10-24T17:26:15.233Z,69.06
2022-10-24T17:31:36.295Z,69.07
2022-10-24T17:37:20.525Z,69.25
2022-10-24T17:42:41.817Z,69.41
2022-10-24T17:48:02.744Z,69.48
2022-10-24T17:53:23.649Z,69.41
2022-10-24T17:58:46.628Z,69.11
2022-10-24T18:04:08.060Z,69.23
2022-10-24T18:09:29.771Z,69.29
2022-10-24T18:14:50.537Z,69.22
2022-10-24T18:20:13.002Z,69.56
2022-10-24T18:25:33.954Z,69.55
2022-10-24T18:30:54.861Z,69.45
2022-10-24T18:36:21.681Z,69.50
2022-10-24T18:41:56.639Z,69.53
2022-10-24T18:47:21.937Z,69.40
2022-10-24T18:53:05.989Z,69.72
2022-10-24T18:58:27.146Z,69.74
2022-10-24T19:03:48.223Z,69.58
2022-10-24T19:09:17.420Z,69.69
2022-10-24T19:14:39.003Z,69.45
2022-10-24T19:20:01.061Z,69.59
2022-10-24T19:25:22.124Z,69.87
2022-10-24T19:30:44.708Z,69.68
2022-10-24T19:36:06.083Z,69.61
2022-10-24T19:41:26.969Z,69.93
2022-10-24T19:46:47.895Z,69.76
2022-10-24T19:52:09.735Z,69.75
2022-10-24T19:57:31.077Z,69.72
2022-10-24T20:02:52.105Z,69.78
2022-10-24T20:08:12.925Z,69.69
2022-10-24T20:13:33.919Z,69.60
2022-10-24T20:18:55.017Z,70.02
2022-10-24T20:24:16.111Z,70.15
2022-10-24T20:29:36.879Z,70.04
2022-10-24T20:34:57.519Z,70.41
2022-10-24T20:40:18.393Z,70.17
2022-10-24T20:45:40.604Z,70.19
2022-10-24T20:51:13.296Z,70.16
2022-10-24T20:56:35.894Z,70.54
2022-10-24T21:01:58.929Z,70.67
2022-10-24T21:07:19.803Z,70.37
2022-10-24T21:12:43.903Z,70.61
2022-10-24T21:18:07.705Z,70.42
2022-10-24T21:23:28.522Z,70.43
2022-10-24T21:28:50.156Z,70.72
2022-10-24T21:34:11.047Z,70.39
2022-10-24T21:39:31.765Z,70.57
2022-10-24T21:44:52.604Z,70.62
2022-10-24T21:50:13.446Z,70.69
2022-10-24T21:55:34.400Z,70.90
